»·PEaware :: N811JS 0O2-1L1

N811JS :: 0O2-1L1

FLIGHT INFORMATION

Flight Status: Arrived
Operator: Privately registered:
United States
More flights under this callsign
Pilot: Jeff S. (14581)
Aircraft: ECLIPSE 500
(EA50)
More flights by this aircraft type
Origin: 0O2 Baker
United States
Destination: 1L1 Lincoln Co
United States
More flights between these airports :: More routes between these airports
Route: +CLARR V394 MMM
File this flight plan on PilotEdge
Remarks:
Altitude:
(Current/Filed)
15,000ft
Speed:
(Current/Filed)
250kts
Departed: 06-Mar-19 06:14 PM
Arrived: 06-Mar-19 06:57 PM
Distance/Time
Traveled:
170nm/0:42
Distance/Time
To Go:
Arrived

Flight Plot

Page will automatically refresh every two minutes.


Map Options




Map Legend


Flown Route
Filed Route
Departure Airport
Arrival Airport
Navaid (VOR, NDB)
Fix

Horizontal Profiles

Position Reports

Time Latitude Longitude Heading Altitude Ground
Speed
06-Mar-19 18:04 35.287185 -116.081084 254 923ft 0kts
06-Mar-19 18:05 35.287185 -116.081084 254 923ft 0kts
06-Mar-19 18:06 35.287185 -116.081084 254 923ft 0kts
06-Mar-19 18:07 35.287185 -116.081084 254 923ft 0kts
06-Mar-19 18:08 35.287185 -116.081084 254 923ft 0kts
06-Mar-19 18:09 35.287185 -116.081084 254 923ft 0kts
06-Mar-19 18:10 35.287152 -116.081223 251 922ft 0kts
06-Mar-19 18:11 35.283287 -116.080369 166 922ft 23kts
06-Mar-19 18:12 35.282594 -116.080131 343 922ft 0kts
06-Mar-19 18:13 35.290901 -116.082774 344 1079ft 107kts
06-Mar-19 18:14 35.329776 -116.069518 65 3140ft 198kts
06-Mar-19 18:15 35.362409 -116.011614 48 5771ft 217kts
06-Mar-19 18:16 35.405919 -115.958869 42 8501ft 226kts
06-Mar-19 18:17 35.453902 -115.907394 40 10973ft 234kts
06-Mar-19 18:18 35.504338 -115.855229 39 13206ft 242kts
06-Mar-19 18:19 35.557146 -115.801124 39 15003ft 261kts
06-Mar-19 18:20 35.618230 -115.738619 39 15038ft 302kts
06-Mar-19 18:21 35.682093 -115.671623 46 15036ft 296kts
06-Mar-19 18:22 35.738838 -115.599028 45 15056ft 297kts
06-Mar-19 18:23 35.796275 -115.525415 45 15054ft 299kts
06-Mar-19 18:24 35.853835 -115.451488 45 15054ft 299kts
06-Mar-19 18:25 35.911331 -115.377479 45 15054ft 299kts
06-Mar-19 18:26 35.968704 -115.303469 46 15054ft 299kts
06-Mar-19 18:27 36.026554 -115.228673 46 15054ft 300kts
06-Mar-19 18:28 36.084198 -115.154159 45 15054ft 300kts
06-Mar-19 18:29 36.142793 -115.080063 45 15054ft 300kts
06-Mar-19 18:30 36.200933 -115.006401 45 15054ft 299kts
06-Mar-19 18:31 36.259151 -114.932477 45 15054ft 299kts
06-Mar-19 18:32 36.317212 -114.858585 45 15054ft 299kts
06-Mar-19 18:33 36.375277 -114.784519 45 15054ft 299kts
06-Mar-19 18:34 36.433422 -114.710180 45 15054ft 299kts
06-Mar-19 18:35 36.491257 -114.636069 45 15054ft 299kts
06-Mar-19 18:36 36.549243 -114.561593 45 15054ft 299kts
06-Mar-19 18:37 36.607086 -114.487129 45 15054ft 299kts
06-Mar-19 18:38 36.664812 -114.412645 45 15054ft 299kts
06-Mar-19 18:39 36.722669 -114.337821 46 15054ft 299kts
06-Mar-19 18:40 36.787912 -114.279198 356 15052ft 299kts
06-Mar-19 18:41 36.870333 -114.291219 353 15060ft 299kts
06-Mar-19 18:42 36.952535 -114.302770 353 14056ft 294kts
06-Mar-19 18:43 37.033214 -114.314003 353 13053ft 290kts
06-Mar-19 18:44 37.112834 -114.325086 353 12095ft 284kts
06-Mar-19 18:45 37.191552 -114.336059 353 12054ft 285kts
06-Mar-19 18:46 37.270557 -114.347097 353 12054ft 285kts
06-Mar-19 18:47 37.349480 -114.358147 353 12054ft 286kts
06-Mar-19 18:48 37.428343 -114.369212 353 12054ft 286kts
06-Mar-19 18:49 37.506245 -114.384901 333 11925ft 289kts
06-Mar-19 18:50 37.572544 -114.423211 340 10406ft 224kts
06-Mar-19 18:51 37.628831 -114.428448 359 8901ft 190kts
06-Mar-19 18:52 37.673855 -114.427259 3 7568ft 147kts
06-Mar-19 18:53 37.713203 -114.425127 2 6561ft 139kts
06-Mar-19 18:54 37.751377 -114.422856 3 5560ft 135kts
06-Mar-19 18:55 37.784719 -114.420951 2 4810ft 88kts
06-Mar-19 18:56 37.792252 -114.420613 2 4832ft 28kts
06-Mar-19 18:57 37.793817 -114.421130 184 4837ft 0kts
06-Mar-19 18:58 37.793817 -114.421130 184 4837ft 0kts

Navigation Log

Ident Type
Flight plan parsing failed, navigation log unavailable